Time;durP1;ratioP1;P1;durP2;ratioP2;P2;SDS_P1;SDS_P2;PMS_P1;PMS_P2;Temp;Humidity;BMP_temperature;BMP_pressure;BME280_temperature;BME280_humidity;BME280_pressure;Samples;Min_cycle;Max_cycle;Signal;HPM_P1;HPM_P2
2023/03/12 06:00:36;;;;;;;8.20;5.67;;;5.20;97.20;;;;;;1718457;28;20699;-63
2023/03/12 06:01:29;;;;;;;6.68;5.28;;;5.20;97.20;;;;;;1720506;28;20217;-64
2023/03/12 06:02:20;;;;;;;8.57;5.88;;;5.30;97.20;;;;;;1720258;28;20247;-62
2023/03/12 06:03:12;;;;;;;5.70;5.18;;;5.30;97.20;;;;;;1720212;28;20246;-64
2023/03/12 06:04:04;;;;;;;5.78;4.68;;;5.30;97.20;;;;;;1721489;28;20284;-64
2023/03/12 06:04:57;;;;;;;7.05;4.72;;;5.30;97.20;;;;;;1721548;28;20227;-63
2023/03/12 06:05:48;;;;;;;6.07;4.43;;;5.30;97.20;;;;;;1721676;28;20205;-63
2023/03/12 06:06:39;;;;;;;7.05;5.78;;;5.30;97.20;;;;;;1721697;28;20673;-64
2023/03/12 06:07:31;;;;;;;6.93;4.83;;;5.30;97.20;;;;;;1721662;28;20287;-63
2023/03/12 06:08:22;;;;;;;6.00;5.13;;;5.40;97.20;;;;;;1721704;28;20201;-63
2023/03/12 06:09:13;;;;;;;8.25;5.60;;;5.40;97.20;;;;;;1721446;28;20233;-63
2023/03/12 06:10:05;;;;;;;7.07;5.72;;;5.40;97.20;;;;;;1721665;28;20260;-63
2023/03/12 06:10:58;;;;;;;10.20;5.60;;;5.40;97.20;;;;;;1721560;28;20296;-63
2023/03/12 06:11:48;;;;;;;7.25;5.18;;;5.50;97.20;;;;;;1721623;28;20262;-63
2023/03/12 06:12:40;;;;;;;6.77;5.40;;;5.50;97.20;;;;;;1721336;28;20202;-64
2023/03/12 06:13:31;;;;;;;8.30;5.85;;;5.50;97.20;;;;;;1721609;28;20241;-64
2023/03/12 06:14:23;;;;;;;7.13;6.10;;;5.50;97.20;;;;;;1717038;28;20205;-62
2023/03/12 06:15:15;;;;;;;8.27;5.35;;;5.50;97.20;;;;;;1719734;28;20216;-64
2023/03/12 06:16:15;;;;;;;7.72;6.97;;;5.60;97.20;;;;;;1721099;28;20296;-64
2023/03/12 06:17:06;;;;;;;8.68;6.13;;;5.50;97.20;;;;;;1718055;28;20274;-63
2023/03/12 06:17:58;;;;;;;8.57;6.20;;;5.50;97.20;;;;;;1720313;28;20267;-64
2023/03/12 06:18:52;;;;;;;7.35;6.50;;;5.60;97.20;;;;;;1721009;28;20593;-63
2023/03/12 06:19:44;;;;;;;6.82;6.10;;;5.60;97.20;;;;;;1721417;28;20197;-64
2023/03/12 06:20:34;;;;;;;7.25;6.40;;;5.50;97.20;;;;;;1721317;28;20221;-63
2023/03/12 06:21:28;;;;;;;8.37;6.90;;;5.50;97.20;;;;;;1721407;28;20203;-64
2023/03/12 06:22:19;;;;;;;8.98;6.60;;;5.50;97.20;;;;;;1721324;28;20201;-64
2023/03/12 06:23:11;;;;;;;7.50;6.80;;;5.50;97.20;;;;;;1720728;28;20197;-63
2023/03/12 06:24:02;;;;;;;7.00;6.40;;;5.50;97.20;;;;;;1721471;28;20240;-64
2023/03/12 06:24:54;;;;;;;7.07;6.37;;;5.60;97.20;;;;;;1720647;28;20216;-63
2023/03/12 06:25:44;;;;;;;7.28;6.57;;;5.60;97.20;;;;;;1721356;28;20471;-63
2023/03/12 06:26:36;;;;;;;7.90;6.47;;;5.60;97.20;;;;;;1721319;28;20229;-64
2023/03/12 06:27:27;;;;;;;8.23;6.97;;;5.60;97.20;;;;;;1720734;28;20209;-63
2023/03/12 06:28:18;;;;;;;8.73;6.33;;;5.60;97.20;;;;;;1720817;28;20197;-64
2023/03/12 06:29:09;;;;;;;7.38;6.68;;;5.60;97.20;;;;;;1721711;28;20259;-63
2023/03/12 06:30:01;;;;;;;8.93;6.57;;;5.60;97.20;;;;;;1721612;28;20199;-64
2023/03/12 06:30:54;;;;;;;8.57;7.03;;;5.60;97.20;;;;;;1718107;28;20265;-64
2023/03/12 06:31:50;;;;;;;7.30;6.60;;;5.60;97.20;;;;;;1720310;28;20205;-63
2023/03/12 06:32:41;;;;;;;8.63;6.28;;;5.60;97.20;;;;;;1720783;28;20205;-64
2023/03/12 06:33:33;;;;;;;8.17;6.60;;;5.60;97.20;;;;;;1721373;28;20209;-64
2023/03/12 06:34:24;;;;;;;7.68;6.40;;;5.60;97.20;;;;;;1720627;28;20467;-65
2023/03/12 06:35:16;;;;;;;7.73;7.03;;;5.60;97.20;;;;;;1717910;28;20220;-64
2023/03/12 06:36:08;;;;;;;9.50;7.20;;;5.50;97.20;;;;;;1718912;28;20224;-64
2023/03/12 06:37:00;;;;;;;9.65;6.93;;;5.50;97.20;;;;;;1713815;28;20198;-64
2023/03/12 06:37:51;;;;;;;9.93;7.05;;;5.50;97.20;;;;;;1714075;28;20681;-64
2023/03/12 06:38:43;;;;;;;10.60;7.27;;;5.50;97.20;;;;;;1714322;28;20198;-64
2023/03/12 06:39:33;;;;;;;7.53;6.82;;;5.50;97.20;;;;;;1714642;28;20208;-64
2023/03/12 06:40:25;;;;;;;7.20;6.50;;;5.50;97.20;;;;;;1718488;28;20204;-63
2023/03/12 06:41:17;;;;;;;7.97;7.00;;;5.50;97.20;;;;;;1721258;28;20244;-64
2023/03/12 06:42:11;;;;;;;7.68;6.85;;;5.50;97.20;;;;;;1720931;28;20252;-64
2023/03/12 06:43:02;;;;;;;7.55;6.78;;;5.50;97.20;;;;;;1720739;28;20205;-64
2023/03/12 06:43:54;;;;;;;8.53;7.60;;;5.50;97.20;;;;;;1721332;28;20201;-64
2023/03/12 06:44:45;;;;;;;9.15;7.38;;;5.50;97.20;;;;;;1721298;28;20619;-64
2023/03/12 06:45:36;;;;;;;7.53;6.70;;;5.40;97.20;;;;;;1721413;28;20209;-63
2023/03/12 06:46:27;;;;;;;8.23;7.38;;;5.40;97.20;;;;;;1721365;28;20942;-64
2023/03/12 06:47:20;;;;;;;10.27;7.37;;;5.30;97.20;;;;;;1721306;28;20549;-64
2023/03/12 06:48:11;;;;;;;7.45;6.75;;;5.30;97.20;;;;;;1721211;28;20221;-64
2023/03/12 06:49:02;;;;;;;7.83;7.10;;;5.30;97.20;;;;;;1721059;28;20275;-64
2023/03/12 06:49:53;;;;;;;8.82;6.97;;;5.20;97.20;;;;;;1721252;28;20220;-64
2023/03/12 06:50:45;;;;;;;11.03;7.60;;;5.20;97.20;;;;;;1721201;28;20237;-64
2023/03/12 06:51:36;;;;;;;7.13;6.43;;;5.20;97.20;;;;;;1721264;28;20209;-64
2023/03/12 06:52:28;;;;;;;9.25;6.00;;;5.20;97.20;;;;;;1721298;28;20201;-66
2023/03/12 06:53:19;;;;;;;6.47;5.85;;;5.20;97.20;;;;;;1720631;28;20204;-64
2023/03/12 06:54:11;;;;;;;6.72;6.05;;;5.20;97.20;;;;;;1720560;28;20205;-64
2023/03/12 06:55:02;;;;;;;9.70;6.20;;;5.20;97.20;;;;;;1721282;28;20201;-64
2023/03/12 06:55:53;;;;;;;6.63;5.90;;;5.10;97.20;;;;;;1721204;28;20201;-64
2023/03/12 06:56:44;;;;;;;8.13;6.70;;;5.20;97.20;;;;;;1721224;28;20457;-64
2023/03/12 06:57:36;;;;;;;7.35;6.38;;;5.10;97.20;;;;;;1721259;28;20205;-63
2023/03/12 06:58:27;;;;;;;10.18;6.00;;;5.20;97.20;;;;;;1721016;28;20205;-62
2023/03/12 06:59:20;;;;;;;6.60;6.00;;;5.20;97.20;;;;;;1721213;28;20193;-64
2023/03/12 07:00:12;;;;;;;7.00;6.30;;;5.20;97.20;;;;;;1721175;28;20267;-64
2023/03/12 07:01:04;;;;;;;7.05;6.45;;;5.20;97.20;;;;;;1721310;28;20255;-64
2023/03/12 07:01:55;;;;;;;8.63;5.70;;;5.20;97.20;;;;;;1721217;28;20699;-64
2023/03/12 07:02:48;;;;;;;6.80;5.85;;;5.20;97.20;;;;;;1720741;28;20197;-64
2023/03/12 07:03:39;;;;;;;7.43;6.50;;;5.20;97.20;;;;;;1721168;28;20344;-63
2023/03/12 07:04:31;;;;;;;7.27;6.10;;;5.30;97.20;;;;;;1721205;28;20315;-63
2023/03/12 07:05:22;;;;;;;8.52;7.05;;;5.30;97.20;;;;;;1721090;28;20236;-64
2023/03/12 07:06:15;;;;;;;8.95;6.38;;;5.30;97.20;;;;;;1721109;28;20208;-64
2023/03/12 07:07:07;;;;;;;6.68;6.00;;;5.30;97.20;;;;;;1721190;28;20240;-64
2023/03/12 07:07:59;;;;;;;7.70;5.85;;;5.40;97.20;;;;;;1721207;28;20212;-64
2023/03/12 07:08:51;;;;;;;7.72;6.78;;;5.40;97.20;;;;;;1720935;28;20630;-64
2023/03/12 07:09:42;;;;;;;7.53;6.65;;;5.40;97.20;;;;;;1721119;28;20577;-63
2023/03/12 07:10:34;;;;;;;7.00;6.30;;;5.40;97.20;;;;;;1719259;28;20588;-64
2023/03/12 07:11:25;;;;;;;7.47;6.55;;;5.40;97.20;;;;;;1714436;28;20456;-64
2023/03/12 07:12:16;;;;;;;7.70;6.47;;;5.40;97.20;;;;;;1721145;28;20216;-64
2023/03/12 07:13:08;;;;;;;7.50;6.80;;;5.40;97.20;;;;;;1720337;28;20201;-64
2023/03/12 07:14:00;;;;;;;8.48;6.65;;;5.50;97.20;;;;;;1721011;28;20205;-64
2023/03/12 07:14:51;;;;;;;8.85;7.05;;;5.50;97.20;;;;;;1720661;28;20239;-64
2023/03/12 07:15:43;;;;;;;9.73;7.47;;;5.50;97.20;;;;;;1721192;28;20209;-64
2023/03/12 07:16:34;;;;;;;9.93;7.07;;;5.50;97.20;;;;;;1721094;28;20201;-64
2023/03/12 07:17:26;;;;;;;9.98;8.27;;;5.50;97.20;;;;;;1721135;28;20300;-64
2023/03/12 07:18:18;;;;;;;10.07;8.50;;;5.50;97.20;;;;;;1721085;28;20585;-64
2023/03/12 07:19:10;;;;;;;9.73;7.32;;;5.50;97.20;;;;;;1720852;28;20233;-64
2023/03/12 07:20:01;;;;;;;8.60;7.30;;;5.50;97.20;;;;;;1721077;28;20256;-64
2023/03/12 07:20:53;;;;;;;10.37;7.47;;;5.40;97.20;;;;;;1720999;28;20244;-64
2023/03/12 07:21:44;;;;;;;11.07;7.80;;;5.40;97.20;;;;;;1721108;28;20452;-63
2023/03/12 07:22:36;;;;;;;10.23;7.63;;;5.40;97.20;;;;;;1721064;28;20201;-63
2023/03/12 07:23:27;;;;;;;10.73;7.13;;;5.50;97.20;;;;;;1721019;28;20212;-64
2023/03/12 07:24:19;;;;;;;11.18;7.32;;;5.50;97.20;;;;;;1721090;28;20231;-64
2023/03/12 07:25:09;;;;;;;9.80;7.90;;;5.50;97.20;;;;;;1720996;28;20216;-64
2023/03/12 07:26:03;;;;;;;8.63;7.63;;;5.50;97.20;;;;;;1721111;28;20201;-63
2023/03/12 07:26:54;;;;;;;8.90;7.60;;;5.50;97.20;;;;;;1721050;28;20209;-64
2023/03/12 07:27:45;;;;;;;11.40;8.95;;;5.50;97.20;;;;;;1719358;28;20578;-64
2023/03/12 07:28:37;;;;;;;10.13;7.90;;;5.50;97.20;;;;;;1720860;28;20331;-64
2023/03/12 07:29:28;;;;;;;10.13;8.43;;;5.50;97.20;;;;;;1720867;28;20315;-64
2023/03/12 07:30:19;;;;;;;8.70;7.73;;;5.50;97.20;;;;;;1720875;28;20201;-64
2023/03/12 07:31:10;;;;;;;8.30;7.45;;;5.60;97.20;;;;;;1721025;28;20216;-63
2023/03/12 07:32:02;;;;;;;10.80;7.80;;;5.60;97.20;;;;;;1721025;28;20193;-64
2023/03/12 07:32:53;;;;;;;9.93;8.20;;;5.60;97.20;;;;;;1720347;28;20453;-64
2023/03/12 07:33:46;;;;;;;13.77;7.67;;;5.70;97.20;;;;;;1721078;28;20288;-63
2023/03/12 07:34:37;;;;;;;8.10;7.30;;;5.70;97.20;;;;;;1720879;28;20693;-64
2023/03/12 07:35:29;;;;;;;8.50;7.45;;;5.70;97.20;;;;;;1720882;28;20202;-64
2023/03/12 07:36:20;;;;;;;8.30;7.53;;;5.80;97.20;;;;;;1721036;28;20235;-64
2023/03/12 07:37:12;;;;;;;8.93;7.50;;;5.80;97.20;;;;;;1720825;28;20232;-64
2023/03/12 07:38:03;;;;;;;8.32;6.68;;;5.80;97.20;;;;;;1721036;28;20690;-64
2023/03/12 07:38:54;;;;;;;8.33;7.50;;;5.80;97.20;;;;;;1720733;28;20574;-64
2023/03/12 07:39:50;;;;;;;9.65;7.25;;;5.90;97.20;;;;;;1720995;28;20452;-63
2023/03/12 07:40:41;;;;;;;9.50;8.05;;;5.90;97.20;;;;;;1720916;28;20223;-64
2023/03/12 07:41:34;;;;;;;8.85;7.00;;;5.90;97.20;;;;;;1720979;28;20714;-64
2023/03/12 07:42:25;;;;;;;8.45;6.72;;;5.90;97.20;;;;;;1720962;28;20925;-62
2023/03/12 07:43:16;;;;;;;9.60;6.30;;;5.90;97.20;;;;;;1720539;28;20682;-64
2023/03/12 07:44:08;;;;;;;7.77;6.37;;;5.90;97.20;;;;;;1719264;28;20575;-63
2023/03/12 07:44:59;;;;;;;6.65;5.38;;;5.90;97.20;;;;;;1720986;28;20204;-63
2023/03/12 07:45:51;;;;;;;9.67;6.30;;;6.00;97.20;;;;;;1720978;28;20281;-65
2023/03/12 07:46:42;;;;;;;7.93;6.15;;;6.00;97.20;;;;;;1720693;28;20233;-64
2023/03/12 07:47:34;;;;;;;6.10;5.50;;;6.00;97.20;;;;;;1720929;28;20208;-63
2023/03/12 07:48:24;;;;;;;8.40;5.85;;;6.00;97.20;;;;;;1720963;28;20480;-63
2023/03/12 07:49:18;;;;;;;5.70;5.00;;;6.00;97.20;;;;;;1720818;28;20201;-63
2023/03/12 07:50:10;;;;;;;9.75;5.68;;;6.10;97.20;;;;;;1721016;28;20700;-64
2023/03/12 07:51:01;;;;;;;5.55;4.95;;;6.10;97.20;;;;;;1720860;28;20221;-64
2023/03/12 07:51:52;;;;;;;6.95;5.07;;;6.20;97.20;;;;;;1720983;28;20208;-64
2023/03/12 07:52:44;;;;;;;6.60;5.13;;;6.30;97.20;;;;;;1720863;28;20197;-63
2023/03/12 07:53:35;;;;;;;6.38;5.50;;;6.30;97.20;;;;;;1721007;28;20201;-63
2023/03/12 07:54:29;;;;;;;5.80;5.30;;;6.50;97.20;;;;;;1720874;28;20201;-63
2023/03/12 07:55:20;;;;;;;8.00;4.57;;;6.50;97.20;;;;;;1720890;28;20288;-64
2023/03/12 07:56:11;;;;;;;8.50;5.83;;;6.70;97.20;;;;;;1720995;28;20204;-63
2023/03/12 07:57:02;;;;;;;7.28;5.60;;;6.80;97.20;;;;;;1721003;28;20209;-64
2023/03/12 07:57:57;;;;;;;6.38;5.63;;;6.80;97.20;;;;;;1720828;28;20283;-64
2023/03/12 07:58:49;;;;;;;6.93;5.25;;;6.80;97.20;;;;;;1720847;28;20205;-64
2023/03/12 07:59:39;;;;;;;7.43;5.78;;;6.90;97.20;;;;;;1720896;28;20201;-63
2023/03/12 08:00:31;;;;;;;8.13;5.80;;;6.90;97.20;;;;;;1720686;28;20205;-62
2023/03/12 08:01:24;;;;;;;7.35;5.80;;;7.00;97.20;;;;;;1715258;28;20587;-64
2023/03/12 08:02:15;;;;;;;8.30;6.10;;;7.10;97.20;;;;;;1714181;28;20208;-64
2023/03/12 08:03:06;;;;;;;7.72;6.53;;;7.20;97.20;;;;;;1713925;28;20282;-64
2023/03/12 08:03:58;;;;;;;6.75;6.05;;;7.40;97.20;;;;;;1714321;28;20833;-63
2023/03/12 08:04:50;;;;;;;7.25;6.53;;;7.50;97.20;;;;;;1714098;28;20584;-64
2023/03/12 08:05:42;;;;;;;6.80;5.68;;;7.60;97.20;;;;;;1714299;28;20205;-64
2023/03/12 08:06:33;;;;;;;7.75;5.78;;;7.70;97.20;;;;;;1714165;28;20459;-64
2023/03/12 08:07:26;;;;;;;7.00;6.23;;;7.80;97.20;;;;;;1714285;28;20202;-64
2023/03/12 08:08:17;;;;;;;6.47;5.88;;;7.90;97.20;;;;;;1714055;28;20210;-64
2023/03/12 08:09:09;;;;;;;8.80;6.83;;;7.90;97.20;;;;;;1714183;28;20206;-63
2023/03/12 08:10:00;;;;;;;8.07;6.20;;;7.90;97.20;;;;;;1716371;28;20260;-63
2023/03/12 08:10:51;;;;;;;9.00;7.00;;;7.90;97.20;;;;;;1716452;28;20224;-63
2023/03/12 08:11:42;;;;;;;7.07;6.22;;;8.00;97.20;;;;;;1716617;28;20446;-64
2023/03/12 08:12:34;;;;;;;8.80;6.47;;;8.00;97.20;;;;;;1717758;28;20197;-64
2023/03/12 08:13:25;;;;;;;10.95;6.72;;;8.00;97.20;;;;;;1716813;28;20201;-64
2023/03/12 08:14:17;;;;;;;6.25;5.65;;;8.10;97.20;;;;;;1716252;28;20197;-64
2023/03/12 08:15:08;;;;;;;6.97;5.70;;;8.30;97.20;;;;;;1716920;28;20238;-64
2023/03/12 08:16:00;;;;;;;6.82;5.50;;;8.50;97.20;;;;;;1717844;28;20198;-64
2023/03/12 08:16:50;;;;;;;7.30;5.80;;;8.70;97.20;;;;;;1716246;28;20554;-64
2023/03/12 08:17:42;;;;;;;6.87;6.27;;;8.80;97.20;;;;;;1716593;28;20216;-64
2023/03/12 08:18:33;;;;;;;7.35;5.57;;;8.90;97.20;;;;;;1717608;28;20256;-64
2023/03/12 08:19:25;;;;;;;5.90;5.40;;;8.90;97.20;;;;;;1717384;28;20201;-63
2023/03/12 08:20:17;;;;;;;6.13;5.15;;;8.90;97.20;;;;;;1716407;28;20198;-64
2023/03/12 08:21:09;;;;;;;5.38;4.88;;;8.80;97.20;;;;;;1717410;28;20228;-63
2023/03/12 08:22:00;;;;;;;5.10;4.60;;;8.70;97.20;;;;;;1717785;28;20667;-64
2023/03/12 08:22:52;;;;;;;5.60;4.67;;;8.60;97.20;;;;;;1716103;28;20635;-65
2023/03/12 08:23:42;;;;;;;9.65;5.30;;;8.60;97.20;;;;;;1716668;28;20194;-63
2023/03/12 08:24:34;;;;;;;5.43;4.80;;;8.50;97.20;;;;;;1717758;28;20204;-64
2023/03/12 08:25:25;;;;;;;4.90;4.50;;;8.40;97.20;;;;;;1716667;28;20193;-64
2023/03/12 08:26:17;;;;;;;5.07;4.60;;;8.40;97.20;;;;;;1715268;28;20213;-64
2023/03/12 08:27:08;;;;;;;9.20;4.88;;;8.20;97.20;;;;;;1716609;28;20247;-64
2023/03/12 08:27:59;;;;;;;5.33;4.13;;;8.10;97.20;;;;;;1716397;28;20205;-64
2023/03/12 08:28:50;;;;;;;5.18;4.03;;;7.90;97.20;;;;;;1717573;28;20445;-63
2023/03/12 08:29:42;;;;;;;4.40;4.07;;;7.80;97.20;;;;;;1717502;28;20292;-64
2023/03/12 08:30:33;;;;;;;5.90;4.20;;;7.70;97.20;;;;;;1716195;28;20257;-65
2023/03/12 08:31:24;;;;;;;5.90;4.90;;;7.50;97.20;;;;;;1716771;28;20194;-64
2023/03/12 08:32:15;;;;;;;5.97;5.20;;;7.40;97.20;;;;;;1717764;28;20194;-64
2023/03/12 08:33:08;;;;;;;6.23;5.17;;;7.30;97.20;;;;;;1716688;28;20200;-64
2023/03/12 08:33:59;;;;;;;11.70;5.47;;;7.30;97.20;;;;;;1716315;28;20455;-64
2023/03/12 08:34:51;;;;;;;6.83;5.40;;;7.30;97.20;;;;;;1717360;28;20202;-64
2023/03/12 08:35:44;;;;;;;6.30;5.30;;;7.30;97.20;;;;;;1717479;28;20209;-64
2023/03/12 08:36:36;;;;;;;6.30;5.40;;;7.20;97.20;;;;;;1716302;28;20197;-65
2023/03/12 08:37:28;;;;;;;6.53;5.53;;;7.20;97.20;;;;;;1716956;28;20194;-64
2023/03/12 08:38:19;;;;;;;7.25;5.55;;;7.20;97.20;;;;;;1717685;28;20596;-63
2023/03/12 08:39:10;;;;;;;7.63;5.47;;;7.20;97.20;;;;;;1716310;28;20188;-64
2023/03/12 08:40:04;;;;;;;6.20;5.63;;;7.20;97.20;;;;;;1716228;28;20241;-64
2023/03/12 08:40:57;;;;;;;7.93;5.13;;;7.20;97.20;;;;;;1717528;28;20655;-64
2023/03/12 08:41:48;;;;;;;5.97;5.47;;;7.20;97.20;;;;;;1714537;28;20283;-64
2023/03/12 08:42:39;;;;;;;5.17;4.77;;;7.20;97.20;;;;;;1715954;28;20193;-63
2023/03/12 08:43:30;;;;;;;5.90;5.28;;;7.20;97.20;;;;;;1717423;28;20445;-64
2023/03/12 08:44:22;;;;;;;6.20;5.60;;;7.30;97.20;;;;;;1717598;28;20205;-64
2023/03/12 08:45:14;;;;;;;6.40;5.80;;;7.40;97.20;;;;;;1716103;28;20220;-64
2023/03/12 08:46:06;;;;;;;6.60;5.60;;;7.50;97.20;;;;;;1716689;28;20201;-64
2023/03/12 08:46:56;;;;;;;5.78;5.03;;;7.50;97.20;;;;;;1717670;28;20205;-64
2023/03/12 08:47:49;;;;;;;5.87;5.37;;;7.60;97.20;;;;;;1716713;28;20219;-63
2023/03/12 08:48:39;;;;;;;7.50;5.30;;;7.70;97.20;;;;;;1716264;28;20197;-64
2023/03/12 08:49:31;;;;;;;7.20;5.10;;;7.90;97.20;;;;;;1717493;28;20253;-65
2023/03/12 08:50:24;;;;;;;7.75;5.30;;;8.00;97.20;;;;;;1717199;28;20260;-64
2023/03/12 08:51:17;;;;;;;5.95;5.45;;;8.20;97.20;;;;;;1716239;28;20200;-64
2023/03/12 08:52:08;;;;;;;6.05;5.05;;;8.40;97.20;;;;;;1717267;28;20970;-64
2023/03/12 08:53:00;;;;;;;5.70;4.90;;;8.50;97.20;;;;;;1717407;28;20201;-64
2023/03/12 08:53:51;;;;;;;6.13;5.53;;;8.60;97.20;;;;;;1716215;28;20197;-63
2023/03/12 08:54:43;;;;;;;7.32;5.93;;;8.60;97.20;;;;;;1715850;28;20679;-64
2023/03/12 08:55:34;;;;;;;7.22;6.22;;;8.50;97.20;;;;;;1717749;28;20229;-64
2023/03/12 08:56:26;;;;;;;7.35;5.82;;;8.40;97.20;;;;;;1716966;28;20189;-64
2023/03/12 08:57:17;;;;;;;6.47;5.45;;;8.30;97.20;;;;;;1716303;28;20193;-63
2023/03/12 08:58:08;;;;;;;6.17;5.57;;;8.20;97.20;;;;;;1717221;28;20198;-64
2023/03/12 08:58:59;;;;;;;6.20;5.68;;;8.10;97.20;;;;;;1717543;28;20213;-64
2023/03/12 08:59:51;;;;;;;7.07;6.37;;;8.00;97.20;;;;;;1716269;28;20201;-64
2023/03/12 09:00:42;;;;;;;7.25;5.97;;;7.90;97.20;;;;;;1716426;28;20221;-64
2023/03/12 09:01:33;;;;;;;7.70;6.00;;;7.80;97.20;;;;;;1717566;28;20197;-64
2023/03/12 09:02:24;;;;;;;6.70;5.80;;;7.80;97.20;;;;;;1717056;28;20208;-64
2023/03/12 09:03:16;;;;;;;6.60;6.00;;;7.80;97.20;;;;;;1715915;28;20689;-64
2023/03/12 09:04:07;;;;;;;7.03;6.25;;;7.70;97.20;;;;;;1717121;28;20198;-64
2023/03/12 09:04:59;;;;;;;7.30;6.60;;;7.70;97.20;;;;;;1717518;28;20205;-64
2023/03/12 09:05:50;;;;;;;6.78;6.18;;;7.60;97.20;;;;;;1716231;28;20962;-64
2023/03/12 09:06:44;;;;;;;7.10;6.50;;;7.60;97.20;;;;;;1716174;28;20309;-64
2023/03/12 09:07:34;;;;;;;7.95;7.15;;;7.50;97.20;;;;;;1717660;28;20674;-65
2023/03/12 09:08:26;;;;;;;9.03;7.53;;;7.50;97.20;;;;;;1716899;28;20588;-64
2023/03/12 09:09:17;;;;;;;8.75;7.20;;;7.50;97.20;;;;;;1716288;28;20201;-64
2023/03/12 09:10:09;;;;;;;7.03;6.33;;;7.50;97.20;;;;;;1716935;28;20357;-63
2023/03/12 09:11:00;;;;;;;8.35;7.45;;;7.60;97.20;;;;;;1717414;28;20257;-64
2023/03/12 09:11:53;;;;;;;7.63;6.93;;;7.70;97.20;;;;;;1716091;28;20193;-64
2023/03/12 09:12:44;;;;;;;7.38;6.78;;;7.90;97.20;;;;;;1716230;28;20209;-63
2023/03/12 09:13:35;;;;;;;9.23;8.20;;;8.20;97.20;;;;;;1717489;28;20258;-64
2023/03/12 09:14:26;;;;;;;8.27;7.50;;;8.40;97.20;;;;;;1716711;28;20201;-64
2023/03/12 09:15:18;;;;;;;7.23;6.63;;;8.80;97.20;;;;;;1716315;28;20200;-65
2023/03/12 09:16:09;;;;;;;7.22;6.63;;;9.00;97.20;;;;;;1717140;28;20237;-64
2023/03/12 09:17:01;;;;;;;7.90;7.20;;;9.20;97.20;;;;;;1717555;28;20240;-63
2023/03/12 09:17:54;;;;;;;7.97;7.28;;;9.30;97.20;;;;;;1716089;28;20197;-64
2023/03/12 09:18:45;;;;;;;8.07;6.35;;;9.30;97.20;;;;;;1716584;28;20202;-64
2023/03/12 09:19:36;;;;;;;8.32;7.32;;;9.40;97.20;;;;;;1717657;28;20209;-64
2023/03/12 09:20:28;;;;;;;7.80;7.00;;;9.40;97.20;;;;;;1716688;28;20203;-64
2023/03/12 09:21:19;;;;;;;8.73;7.78;;;9.50;97.20;;;;;;1716174;28;20201;-64
2023/03/12 09:22:12;;;;;;;8.00;7.30;;;9.60;97.20;;;;;;1717279;28;20204;-63
2023/03/12 09:23:02;;;;;;;7.90;7.20;;;9.60;97.20;;;;;;1717122;28;20221;-64
2023/03/12 09:23:54;;;;;;;7.60;6.90;;;9.70;97.20;;;;;;1716197;28;20197;-63
2023/03/12 09:24:45;;;;;;;7.82;7.13;;;9.80;97.20;;;;;;1716789;28;20198;-64
2023/03/12 09:25:37;;;;;;;8.30;7.47;;;9.90;97.20;;;;;;1717578;28;20208;-63
2023/03/12 09:26:27;;;;;;;8.52;7.72;;;10.10;97.20;;;;;;1716711;28;20681;-65
2023/03/12 09:27:19;;;;;;;8.90;8.00;;;10.20;97.20;;;;;;1716139;28;20573;-64
2023/03/12 09:28:10;;;;;;;9.90;8.30;;;10.30;97.20;;;;;;1717302;28;20733;-63
2023/03/12 09:29:02;;;;;;;10.60;8.73;;;10.40;97.20;;;;;;1717482;28;20686;-65
2023/03/12 09:29:53;;;;;;;8.52;7.72;;;10.50;97.20;;;;;;1716146;28;20197;-63
2023/03/12 09:30:44;;;;;;;8.32;7.47;;;10.50;97.20;;;;;;1716110;28;20288;-64
2023/03/12 09:31:35;;;;;;;7.88;7.07;;;10.50;97.20;;;;;;1717227;28;20197;-64
2023/03/12 09:32:27;;;;;;;7.40;6.75;;;10.50;97.20;;;;;;1716705;28;20197;-64
2023/03/12 09:33:18;;;;;;;7.45;6.75;;;10.60;97.20;;;;;;1717333;28;20205;-65
2023/03/12 09:34:10;;;;;;;8.50;7.47;;;10.70;97.20;;;;;;1716396;28;20199;-64
2023/03/12 09:35:01;;;;;;;6.88;6.25;;;10.70;97.20;;;;;;1716020;28;20233;-64
2023/03/12 09:35:57;;;;;;;7.83;7.23;;;10.80;97.20;;;;;;1716122;28;20208;-64
2023/03/12 09:36:48;;;;;;;7.20;6.60;;;10.90;97.20;;;;;;1716931;28;20285;-64
2023/03/12 09:37:41;;;;;;;7.72;6.72;;;10.90;97.20;;;;;;1717893;28;20201;-65
2023/03/12 09:38:34;;;;;;;8.00;7.20;;;11.00;97.20;;;;;;1717361;28;20255;-65
2023/03/12 09:39:26;;;;;;;7.63;6.93;;;11.00;97.20;;;;;;1717868;28;20262;-64
2023/03/12 09:40:19;;;;;;;8.15;7.40;;;10.90;97.20;;;;;;1718752;28;20851;-64
2023/03/12 09:41:19;;;;;;;6.93;6.32;;;10.90;97.20;;;;;;1718028;28;20197;-64
2023/03/12 09:42:22;;;;;;;8.27;7.40;;;10.80;97.20;;;;;;1718701;28;20197;-64
2023/03/12 09:43:21;;;;;;;7.75;7.00;;;10.80;97.20;;;;;;1717328;28;20197;-64
2023/03/12 09:44:19;;;;;;;7.38;6.78;;;10.70;97.20;;;;;;1717647;28;20236;-64
2023/03/12 09:45:16;;;;;;;7.50;6.80;;;10.60;97.20;;;;;;1717544;28;20194;-64
2023/03/12 09:46:13;;;;;;;6.80;6.15;;;10.50;97.20;;;;;;1716173;28;20217;-64
2023/03/12 09:47:09;;;;;;;6.85;6.25;;;10.40;97.20;;;;;;1715850;28;20226;-62
2023/03/12 09:48:03;;;;;;;7.18;6.50;;;10.30;97.20;;;;;;1721054;28;20193;-62
2023/03/12 09:48:57;;;;;;;7.57;6.78;;;10.20;97.20;;;;;;1717825;28;20201;-62
2023/03/12 09:49:53;;;;;;;7.65;6.93;;;10.10;97.20;;;;;;1717745;28;20205;-63
2023/03/12 09:50:47;;;;;;;6.75;6.15;;;10.10;97.20;;;;;;1717437;28;20256;-62
2023/03/12 09:51:43;;;;;;;6.78;6.10;;;10.00;97.20;;;;;;1718623;28;20200;-63
2023/03/12 09:52:38;;;;;;;7.47;6.50;;;10.00;97.20;;;;;;1717835;28;20216;-62
2023/03/12 09:53:36;;;;;;;6.53;5.95;;;10.10;97.20;;;;;;1720840;28;20182;-62
2023/03/12 09:54:33;;;;;;;6.68;6.07;;;10.10;97.20;;;;;;1720127;28;20198;-61
2023/03/12 09:55:27;;;;;;;6.47;5.88;;;10.10;97.20;;;;;;1726563;28;20193;-63
2023/03/12 09:56:20;;;;;;;6.30;5.70;;;10.00;97.20;;;;;;1728507;28;20211;-63
2023/03/12 09:57:18;;;;;;;8.50;7.63;;;10.00;97.20;;;;;;1728500;28;20323;-63
2023/03/12 09:58:12;;;;;;;11.35;10.15;;;10.00;97.20;;;;;;1728267;28;20212;-63
2023/03/12 09:59:04;;;;;;;14.40;12.38;;;10.10;97.20;;;;;;1728266;28;20204;-62
2023/03/12 09:59:55;;;;;;;11.60;10.45;;;10.10;97.20;;;;;;1728475;28;20204;-63
2023/03/12 10:00:47;;;;;;;8.48;7.65;;;10.10;97.20;;;;;;1728432;28;20215;-64
2023/03/12 10:01:42;;;;;;;7.53;6.90;;;10.10;97.20;;;;;;1728382;28;20219;-64
2023/03/12 10:02:51;;;;;;;7.10;6.50;;;10.20;97.20;;;;;;1728511;28;20200;-63
2023/03/12 10:04:03;;;;;;;7.78;6.97;;;10.30;97.20;;;;;;1728159;28;20205;-64
2023/03/12 10:04:57;;;;;;;7.50;6.28;;;10.30;97.20;;;;;;1714742;28;20244;-63
2023/03/12 10:06:02;;;;;;;7.30;6.47;;;10.40;97.20;;;;;;1722517;28;20204;-63
2023/03/12 10:06:59;;;;;;;6.35;5.75;;;10.40;97.20;;;;;;1714858;28;20202;-63
2023/03/12 10:07:55;;;;;;;6.18;5.68;;;10.40;97.20;;;;;;1714965;28;20600;-63
2023/03/12 10:08:57;;;;;;;7.00;6.18;;;10.40;97.20;;;;;;1714749;28;20206;-64
2023/03/12 10:10:16;;;;;;;6.03;5.43;;;10.30;97.20;;;;;;1714955;28;20213;-63
2023/03/12 10:11:17;;;;;;;6.68;5.97;;;10.30;97.20;;;;;;1715011;28;20206;-63
2023/03/12 10:12:19;;;;;;;6.38;5.88;;;10.20;97.20;;;;;;1714908;28;20206;-63
2023/03/12 10:13:18;;;;;;;6.63;6.03;;;10.30;97.20;;;;;;1714529;28;20206;-64
2023/03/12 10:14:30;;;;;;;6.55;5.95;;;10.40;97.20;;;;;;1714669;28;20198;-63
2023/03/12 10:15:35;;;;;;;6.88;6.00;;;10.50;97.20;;;;;;1714837;28;20622;-63
2023/03/12 10:16:44;;;;;;;6.18;5.57;;;10.90;97.20;;;;;;1714928;28;20560;-63
2023/03/12 10:17:47;;;;;;;5.90;5.40;;;11.30;97.20;;;;;;1714680;28;20309;-64
2023/03/12 10:18:54;;;;;;;6.00;5.40;;;11.80;97.20;;;;;;1719394;28;20194;-63
2023/03/12 10:20:06;;;;;;;6.10;5.55;;;12.30;97.20;;;;;;1721582;28;20209;-64
2023/03/12 10:21:10;;;;;;;5.07;4.68;;;12.50;97.20;;;;;;1721522;28;20233;-63
2023/03/12 10:22:06;;;;;;;5.20;4.80;;;12.60;97.20;;;;;;1721574;28;20231;-64
2023/03/12 10:23:04;;;;;;;5.20;4.70;;;12.60;97.20;;;;;;1721246;28;20209;-63
2023/03/12 10:24:11;;;;;;;5.18;4.72;;;12.50;97.20;;;;;;1721260;28;20268;-63
2023/03/12 10:25:11;;;;;;;6.82;5.53;;;12.50;97.20;;;;;;1721508;28;20610;-62
2023/03/12 10:26:07;;;;;;;4.82;4.43;;;12.50;97.20;;;;;;1721617;28;20236;-64
2023/03/12 10:27:00;;;;;;;4.95;4.55;;;12.40;97.20;;;;;;1721599;28;20774;-63
2023/03/12 10:28:00;;;;;;;5.00;4.55;;;12.40;97.20;;;;;;1721417;28;20200;-63
2023/03/12 10:28:57;;;;;;;6.20;4.85;;;12.30;97.20;;;;;;1721233;28;20208;-63
2023/03/12 10:29:50;;;;;;;4.60;4.20;;;12.20;97.20;;;;;;1721451;28;20213;-65
2023/03/12 10:30:49;;;;;;;4.55;4.15;;;12.40;97.20;;;;;;1721243;28;20316;-65
2023/03/12 10:31:49;;;;;;;4.47;4.10;;;12.50;97.20;;;;;;1721535;28;20210;-65
2023/03/12 10:32:44;;;;;;;4.22;3.90;;;12.60;97.20;;;;;;1721297;28;20205;-64
2023/03/12 10:33:42;;;;;;;4.00;3.70;;;12.60;97.20;;;;;;1721246;28;20212;-65
2023/03/12 10:34:39;;;;;;;4.55;4.15;;;12.60;97.20;;;;;;1719775;28;20233;-65
2023/03/12 10:35:30;;;;;;;4.20;3.80;;;12.70;97.20;;;;;;1714741;28;20241;-65
2023/03/12 10:36:25;;;;;;;4.63;4.22;;;12.70;97.20;;;;;;1714731;28;20660;-65
2023/03/12 10:37:20;;;;;;;4.55;3.80;;;12.80;97.20;;;;;;1714722;28;20649;-65
2023/03/12 10:38:17;;;;;;;5.00;4.50;;;12.80;97.20;;;;;;1714702;28;20606;-65